Pasinler, Turkey
Current Conditions -  °F | °C
As of 3:20 PM on Thursday 29 Jan 2015 (Local Time) from LTCE Reporting Station
Few Clouds Few Clouds  
Wind Chill: 27°   Ceiling: Unl
Heat Index: 27°   Visibility: 4mi
Dew Point: 25°   Wind: 1mph
Humidity: 93%   Direction: NA
Pressure: 29.91"   Gusts: NA
Location:  39.99°N, 41.69°E
Report Text: LTCE 291220Z VRB01KT 6000 FEW030 M03/M04 Q1013 NOSIG
Loading
Personal Weather Stations






























Interactive Weather Map New forecast layout! Learn more

10-Day Weather Forecast

Advertisements
Track Severe Weather on mobile